Terminal Aerodrome Forecast
Issued by NWS North Platte, NE

Home | Current Version | Previous Version | Text Only | Print | Product List | Glossary On
Versions: 1 2 3 4 5 6 7 8 9 10 11 12 13 14 15 16 17 18 19 20 21 22 23 24 25 26 27 28 29 30 31 32 33 34 35 36 37 38 39 40 41 42 43 44 45 46 47 48 49
000
FTUS43 KLBF 190546 CCA
TAFLBF
TAF COR
KLBF 190546Z 1906/2006 36012KT P6SM -SHSN OVC060
     FM190700 36012KT P6SM OVC060
     FM191300 36009KT P6SM SCT080
     FM191600 VRB04KT P6SM FEW250
     FM200400 18006KT P6SM FEW250=

USA.gov is the U.S. government's official web portal to all federal, state and local government web resources and services.